createdAt,value
2023-03-06T00:01:59.507Z,86.09
2023-03-06T00:04:26.065Z,86.07
2023-03-06T00:06:54.019Z,86.54
2023-03-06T00:09:20.478Z,86.65
2023-03-06T00:11:46.971Z,86.61
2023-03-06T00:14:13.483Z,87.20
2023-03-06T00:16:40.071Z,86.49
2023-03-06T00:19:06.555Z,86.91
2023-03-06T00:21:32.973Z,86.72
2023-03-06T00:23:59.409Z,86.66
2023-03-06T00:26:25.977Z,87.16
2023-03-06T00:28:52.470Z,87.65
2023-03-06T00:31:18.927Z,87.27
2023-03-06T00:33:45.460Z,87.84
2023-03-06T00:36:11.913Z,87.25
2023-03-06T00:38:40.661Z,87.52
2023-03-06T00:41:08.814Z,87.99
2023-03-06T00:43:35.232Z,87.54
2023-03-06T00:46:02.049Z,88.37
2023-03-06T00:48:28.576Z,87.88
2023-03-06T00:50:55.065Z,88.24
2023-03-06T00:53:21.524Z,88.84
2023-03-06T00:55:50.289Z,88.64
2023-03-06T00:58:17.166Z,88.81
2023-03-06T01:00:44.292Z,89.39
2023-03-06T01:03:10.997Z,89.40
2023-03-06T01:05:37.965Z,89.23
2023-03-06T01:08:06.304Z,89.23
2023-03-06T01:10:33.506Z,89.65
2023-03-06T01:12:59.973Z,89.07
2023-03-06T01:15:26.421Z,88.96
2023-03-06T01:17:54.458Z,89.49
2023-03-06T01:20:21.886Z,89.81
2023-03-06T01:22:48.518Z,89.57
2023-03-06T01:25:15.042Z,89.30
2023-03-06T01:27:42.453Z,90.16
2023-03-06T01:30:11.265Z,89.94
2023-03-06T01:32:38.707Z,89.31
2023-03-06T01:35:06.364Z,90.10
2023-03-06T01:37:34.980Z,90.06
2023-03-06T01:40:02.625Z,89.98
2023-03-06T01:42:29.981Z,89.60
2023-03-06T01:45:12.390Z,90.31
2023-03-06T01:47:39.251Z,90.75
2023-03-06T01:50:08.616Z,90.67
2023-03-06T01:52:43.230Z,90.95
2023-03-06T01:55:19.446Z,90.13
2023-03-06T01:57:48.341Z,90.05
2023-03-06T02:00:21.302Z,90.33
2023-03-06T02:02:53.854Z,91.27
2023-03-06T02:05:21.047Z,91.37
2023-03-06T02:07:48.452Z,90.82
2023-03-06T02:10:16.221Z,91.23
2023-03-06T02:12:46.670Z,91.22
2023-03-06T02:15:16.493Z,90.60
2023-03-06T02:17:45.646Z,91.32
2023-03-06T02:20:21.174Z,91.63
2023-03-06T02:23:10.140Z,91.74
2023-03-06T02:25:49.490Z,91.78
2023-03-06T02:28:19.514Z,91.22
2023-03-06T02:30:47.509Z,92.00
2023-03-06T02:33:16.561Z,91.85
2023-03-06T02:35:49.978Z,92.08
2023-03-06T02:38:18.327Z,92.12
2023-03-06T02:40:48.818Z,92.09
2023-03-06T02:43:20.055Z,92.02
2023-03-06T02:45:49.991Z,91.90
2023-03-06T02:48:18.669Z,91.93
2023-03-06T02:50:46.180Z,92.98
2023-03-06T02:53:14.283Z,92.37
2023-03-06T02:55:40.934Z,92.98
2023-03-06T02:58:08.115Z,92.50
2023-03-06T03:00:35.016Z,92.22
2023-03-06T03:03:05.040Z,92.66
2023-03-06T03:05:31.885Z,92.64
2023-03-06T03:08:05.265Z,92.70
2023-03-06T03:10:32.892Z,92.23
2023-03-06T03:12:59.437Z,93.10
2023-03-06T03:15:26.272Z,92.40
2023-03-06T03:17:52.755Z,92.21
2023-03-06T03:20:21.292Z,92.56
2023-03-06T03:22:53.797Z,92.49
2023-03-06T03:25:22.191Z,92.54
2023-03-06T03:27:48.888Z,93.13
2023-03-06T03:30:15.831Z,92.73
2023-03-06T03:32:42.387Z,92.60
2023-03-06T03:35:10.731Z,93.03
2023-03-06T03:37:37.883Z,92.78
2023-03-06T03:40:06.585Z,92.61
2023-03-06T03:42:33.327Z,92.51
2023-03-06T03:44:59.882Z,92.18
2023-03-06T03:47:27.174Z,92.62
2023-03-06T03:49:53.742Z,92.69
2023-03-06T03:52:20.971Z,92.84
2023-03-06T03:54:47.407Z,93.09
2023-03-06T03:57:13.919Z,93.02
2023-03-06T03:59:45.626Z,92.10
2023-03-06T04:02:44.885Z,92.57
2023-03-06T04:05:21.024Z,92.51
2023-03-06T04:07:48.326Z,92.58
2023-03-06T04:10:15.607Z,92.98
2023-03-06T04:12:42.624Z,93.05
2023-03-06T04:15:11.044Z,92.14
2023-03-06T04:17:38.489Z,92.25
2023-03-06T04:20:08.826Z,93.08
2023-03-06T04:22:36.289Z,92.50
2023-03-06T04:25:03.442Z,92.72
2023-03-06T04:27:29.951Z,92.81
2023-03-06T04:29:56.606Z,92.63
2023-03-06T04:32:23.997Z,92.69
2023-03-06T04:34:50.881Z,93.02
2023-03-06T04:37:22.940Z,92.36
2023-03-06T04:39:49.767Z,92.67
2023-03-06T04:42:16.299Z,93.02
2023-03-06T04:44:42.884Z,93.19
2023-03-06T04:47:09.617Z,92.85
2023-03-06T04:49:36.278Z,92.53
2023-03-06T04:52:02.865Z,92.86
2023-03-06T04:54:29.320Z,93.31
2023-03-06T04:56:55.944Z,93.27
2023-03-06T04:59:22.344Z,93.36
2023-03-06T05:01:48.900Z,92.80
2023-03-06T05:04:15.419Z,93.11
2023-03-06T05:06:41.958Z,93.51
2023-03-06T05:09:08.476Z,93.28
2023-03-06T05:11:34.944Z,93.53
2023-03-06T05:14:01.535Z,93.30
2023-03-06T05:16:28.076Z,93.85
2023-03-06T05:18:54.494Z,93.85
2023-03-06T05:21:20.975Z,93.77
2023-03-06T05:23:47.585Z,93.42
2023-03-06T05:26:15.108Z,93.72
2023-03-06T05:28:41.614Z,94.07
2023-03-06T05:31:08.023Z,94.23
2023-03-06T05:33:35.854Z,93.98
2023-03-06T05:36:02.859Z,93.42
2023-03-06T05:38:29.410Z,93.72
2023-03-06T05:40:56.033Z,93.76
2023-03-06T05:43:22.466Z,93.90
2023-03-06T05:45:50.437Z,93.87
2023-03-06T05:48:17.109Z,93.96
2023-03-06T05:50:43.595Z,94.20
2023-03-06T05:53:10.230Z,93.52
2023-03-06T05:55:36.814Z,94.25
2023-03-06T05:58:03.333Z,93.83
2023-03-06T06:00:29.929Z,94.11
2023-03-06T06:02:56.320Z,94.59
2023-03-06T06:05:22.798Z,94.21
2023-03-06T06:07:49.251Z,93.98
2023-03-06T06:10:15.863Z,94.64
2023-03-06T06:12:42.379Z,94.58
2023-03-06T06:15:09.153Z,94.51
2023-03-06T06:17:35.760Z,94.90
2023-03-06T06:20:02.359Z,94.41
2023-03-06T06:22:28.899Z,94.69
2023-03-06T06:24:55.438Z,94.72
2023-03-06T06:27:21.863Z,94.70
2023-03-06T06:29:51.230Z,95.04
2023-03-06T06:32:17.792Z,94.47
2023-03-06T06:34:44.279Z,94.50
2023-03-06T06:37:10.783Z,93.90
2023-03-06T06:39:37.238Z,94.86
2023-03-06T06:42:28.189Z,93.99
2023-03-06T06:44:50.265Z,94.18
2023-03-06T06:47:25.606Z,93.85
2023-03-06T06:49:54.476Z,94.08
2023-03-06T06:52:21.778Z,93.54
2023-03-06T06:54:48.228Z,93.36
2023-03-06T06:57:15.809Z,93.50
2023-03-06T06:59:42.706Z,92.87
2023-03-06T07:02:13.800Z,93.04
2023-03-06T07:04:52.192Z,92.55
2023-03-06T07:07:25.354Z,92.02
2023-03-06T07:09:51.993Z,92.15
2023-03-06T07:12:18.531Z,91.72
2023-03-06T07:14:44.995Z,91.28
2023-03-06T07:17:11.428Z,91.02
2023-03-06T07:19:38.687Z,90.84
2023-03-06T07:22:05.771Z,89.98
2023-03-06T07:24:32.299Z,89.85
2023-03-06T07:26:58.799Z,87.89
2023-03-06T07:29:25.337Z,84.44
2023-03-06T07:31:52.120Z,84.41
2023-03-06T07:34:18.527Z,82.61
2023-03-06T07:36:45.005Z,81.55
2023-03-06T07:39:11.485Z,78.61
2023-03-06T07:41:37.979Z,76.27
2023-03-06T07:44:04.463Z,72.66
2023-03-06T07:46:31.089Z,67.76
2023-03-06T07:48:58.203Z,64.81
2023-03-06T07:51:25.253Z,65.24
2023-03-06T07:53:51.765Z,68.67
2023-03-06T07:56:18.313Z,71.17
2023-03-06T07:58:46.915Z,72.49
2023-03-06T08:01:16.637Z,73.38
2023-03-06T08:03:43.813Z,74.27
2023-03-06T08:06:16.088Z,74.79
2023-03-06T08:08:44.405Z,74.38
2023-03-06T08:11:12.276Z,74.01
2023-03-06T08:13:39.510Z,74.17
2023-03-06T08:16:06.616Z,75.08
2023-03-06T08:18:33.607Z,75.35
2023-03-06T08:21:12.875Z,74.39
2023-03-06T08:23:40.251Z,74.69
2023-03-06T08:26:10.710Z,74.27
2023-03-06T08:28:37.264Z,74.54
2023-03-06T08:31:14.319Z,73.05
2023-03-06T08:33:40.860Z,73.06
2023-03-06T08:36:07.541Z,72.53
2023-03-06T08:38:34.003Z,72.19
2023-03-06T08:41:00.612Z,72.02
2023-03-06T08:43:27.093Z,72.51
2023-03-06T08:45:58.619Z,71.77
2023-03-06T08:48:25.507Z,69.11
2023-03-06T08:50:52.201Z,63.40
2023-03-06T08:53:18.762Z,56.77
2023-03-06T08:55:45.630Z,53.32
2023-03-06T08:58:12.205Z,48.25
2023-03-06T09:00:38.924Z,43.93
2023-03-06T09:03:05.779Z,44.22
2023-03-06T09:05:32.361Z,46.25
2023-03-06T09:07:58.838Z,45.53
2023-03-06T09:10:26.155Z,43.77
2023-03-06T09:12:55.118Z,41.54
2023-03-06T09:15:23.570Z,41.36
2023-03-06T09:17:50.882Z,41.52
2023-03-06T09:20:18.732Z,44.23
2023-03-06T09:22:45.886Z,42.90
2023-03-06T09:25:13.893Z,38.66
2023-03-06T09:27:40.871Z,37.82
2023-03-06T09:30:08.378Z,39.11
2023-03-06T09:32:34.954Z,40.02
2023-03-06T09:35:01.462Z,38.63
2023-03-06T09:37:27.966Z,34.42
2023-03-06T09:39:54.443Z,32.12
2023-03-06T09:42:23.600Z,31.64
2023-03-06T09:44:59.802Z,32.04
2023-03-06T09:47:44.603Z,33.04
2023-03-06T09:50:42.610Z,36.60
2023-03-06T09:53:18.619Z,33.74
2023-03-06T09:56:00.874Z,33.42
2023-03-06T09:58:29.818Z,34.39
2023-03-06T10:01:17.964Z,37.39
2023-03-06T10:03:59.674Z,42.29
2023-03-06T10:06:55.435Z,43.60
2023-03-06T10:09:27.884Z,46.30
2023-03-06T10:12:00.125Z,49.32
2023-03-06T10:14:37.362Z,45.69
2023-03-06T10:17:05.307Z,42.22
2023-03-06T10:19:37.620Z,40.66
2023-03-06T10:22:26.202Z,42.87
2023-03-06T10:25:33.308Z,43.02
2023-03-06T10:28:08.630Z,42.23
2023-03-06T10:30:46.210Z,41.11
2023-03-06T10:33:21.699Z,36.32
2023-03-06T10:35:53.367Z,37.01
2023-03-06T10:38:21.713Z,36.24
2023-03-06T10:41:02.021Z,36.66
2023-03-06T10:43:28.552Z,38.61
2023-03-06T10:45:55.165Z,40.11
2023-03-06T10:48:25.837Z,39.59
2023-03-06T10:50:54.838Z,35.65
2023-03-06T10:53:29.061Z,34.81
2023-03-06T10:56:00.158Z,32.75
2023-03-06T10:58:32.250Z,29.47
2023-03-06T11:01:07.085Z,27.56
2023-03-06T11:03:35.727Z,28.27
2023-03-06T11:06:30.538Z,32.04
2023-03-06T11:09:14.000Z,34.29
2023-03-06T11:11:40.625Z,32.75
2023-03-06T11:14:19.015Z,32.26
2023-03-06T11:16:53.657Z,33.68
2023-03-06T11:19:27.935Z,38.00
2023-03-06T11:22:19.409Z,35.22
2023-03-06T11:24:53.539Z,36.72
2023-03-06T11:27:34.412Z,41.43
2023-03-06T11:30:10.096Z,42.23
2023-03-06T11:32:52.366Z,43.24
2023-03-06T11:35:24.480Z,42.36
2023-03-06T11:38:17.054Z,42.62
2023-03-06T11:40:51.334Z,43.23
2023-03-06T11:43:35.264Z,45.57
2023-03-06T11:46:19.750Z,46.07
2023-03-06T11:49:18.677Z,46.17
2023-03-06T11:51:53.036Z,45.22
2023-03-06T11:54:19.785Z,44.72
2023-03-06T11:57:05.825Z,46.40
2023-03-06T12:00:02.229Z,46.11
2023-03-06T12:02:59.469Z,47.36
2023-03-06T12:05:32.619Z,47.58
2023-03-06T12:08:24.881Z,48.29
2023-03-06T12:10:53.091Z,49.02
2023-03-06T12:13:28.676Z,50.97
2023-03-06T12:16:13.489Z,51.97
2023-03-06T12:18:50.850Z,50.00
2023-03-06T12:21:37.474Z,51.48
2023-03-06T12:24:24.262Z,52.35
2023-03-06T12:27:03.107Z,52.24
2023-03-06T12:29:38.808Z,52.37
2023-03-06T12:32:14.839Z,53.01
2023-03-06T12:34:59.141Z,52.86
2023-03-06T12:38:08.785Z,52.42
2023-03-06T12:40:58.449Z,52.79
2023-03-06T12:43:24.814Z,52.08
2023-03-06T12:46:03.550Z,51.90
2023-03-06T12:48:34.895Z,52.17
2023-03-06T12:51:02.370Z,54.04
2023-03-06T12:53:31.930Z,54.33
2023-03-06T12:56:01.967Z,55.80
2023-03-06T12:58:28.708Z,55.89
2023-03-06T13:01:14.565Z,56.54
2023-03-06T13:04:04.893Z,55.24
2023-03-06T13:06:50.757Z,54.48
2023-03-06T13:09:29.482Z,54.35
2023-03-06T13:12:25.540Z,55.04
2023-03-06T13:14:57.513Z,53.85
2023-03-06T13:17:27.361Z,53.88
2023-03-06T13:20:15.575Z,54.72
2023-03-06T13:22:44.844Z,55.61
2023-03-06T13:25:17.041Z,55.01
2023-03-06T13:27:55.611Z,54.93
2023-03-06T13:30:51.939Z,54.44
2023-03-06T13:33:39.080Z,55.13
2023-03-06T13:36:25.163Z,56.21
2023-03-06T13:38:51.791Z,55.77
2023-03-06T13:41:24.832Z,56.07
2023-03-06T13:43:56.753Z,56.79
2023-03-06T13:46:26.034Z,56.52
2023-03-06T13:49:07.873Z,56.54
2023-03-06T13:52:01.678Z,56.80
2023-03-06T13:54:37.263Z,57.37
2023-03-06T13:57:34.874Z,58.66
2023-03-06T14:00:16.311Z,58.83
2023-03-06T14:02:58.139Z,59.27
2023-03-06T14:05:33.143Z,60.05
2023-03-06T14:08:15.698Z,60.62
2023-03-06T14:10:44.791Z,60.28
2023-03-06T14:13:22.918Z,60.48
2023-03-06T14:15:52.582Z,59.91
2023-03-06T14:18:23.813Z,59.46
2023-03-06T14:21:13.332Z,58.33
2023-03-06T14:23:45.747Z,59.59
2023-03-06T14:26:17.233Z,59.24
2023-03-06T14:28:46.053Z,60.13
2023-03-06T14:31:18.855Z,59.28
2023-03-06T14:33:54.506Z,60.33
2023-03-06T14:36:23.402Z,61.20
2023-03-06T14:38:53.803Z,61.76
2023-03-06T14:41:35.254Z,62.73
2023-03-06T14:44:07.669Z,61.96
2023-03-06T14:46:34.152Z,62.40
2023-03-06T14:49:00.745Z,63.27
2023-03-06T14:51:27.678Z,63.37
2023-03-06T14:54:00.709Z,62.11
2023-03-06T14:56:27.594Z,64.25
2023-03-06T14:59:01.364Z,65.86
2023-03-06T15:01:31.140Z,67.98
2023-03-06T15:04:00.738Z,65.47
2023-03-06T15:06:39.521Z,66.15
2023-03-06T15:09:15.506Z,67.03
2023-03-06T15:11:59.117Z,66.84
2023-03-06T15:14:48.073Z,66.39
2023-03-06T15:17:17.500Z,64.37
2023-03-06T15:19:49.950Z,63.91
2023-03-06T15:22:30.628Z,63.58
2023-03-06T15:25:20.760Z,63.94
2023-03-06T15:27:53.168Z,63.35
2023-03-06T15:30:25.878Z,65.24
2023-03-06T15:33:08.096Z,64.55
2023-03-06T15:35:38.202Z,64.36
2023-03-06T15:38:24.144Z,64.22
2023-03-06T15:40:58.592Z,64.60
2023-03-06T15:43:25.282Z,63.41
2023-03-06T15:45:58.662Z,63.20
2023-03-06T15:48:25.567Z,61.58
2023-03-06T15:50:52.277Z,61.85
2023-03-06T15:53:20.235Z,61.58
2023-03-06T15:55:47.241Z,60.93
2023-03-06T15:58:17.335Z,61.58
2023-03-06T16:00:44.340Z,62.26
2023-03-06T16:03:11.720Z,62.36
2023-03-06T16:05:38.670Z,62.66
2023-03-06T16:08:05.857Z,64.30
2023-03-06T16:10:37.297Z,65.88
2023-03-06T16:13:13.740Z,67.20
2023-03-06T16:15:46.438Z,69.62
2023-03-06T16:18:13.575Z,72.30
2023-03-06T16:20:41.497Z,73.50
2023-03-06T16:23:10.517Z,74.64
2023-03-06T16:25:39.324Z,74.97
2023-03-06T16:28:11.519Z,76.81
2023-03-06T16:30:38.452Z,77.24
2023-03-06T16:33:05.231Z,78.02
2023-03-06T16:35:31.886Z,79.64
2023-03-06T16:37:59.861Z,79.90
2023-03-06T16:40:30.334Z,80.84
2023-03-06T16:42:56.781Z,81.27
2023-03-06T16:45:24.441Z,82.44
2023-03-06T16:47:51.111Z,81.84
2023-03-06T16:50:32.405Z,82.94
2023-03-06T16:52:59.315Z,83.35
2023-03-06T16:55:27.130Z,83.28
2023-03-06T16:57:54.108Z,83.67
2023-03-06T17:00:22.104Z,84.23
2023-03-06T17:02:49.144Z,84.37
2023-03-06T17:05:15.976Z,84.67
2023-03-06T17:07:42.488Z,84.86
2023-03-06T17:10:12.219Z,85.39
2023-03-06T17:12:38.907Z,85.42
2023-03-06T17:15:06.504Z,85.45
2023-03-06T17:17:33.636Z,85.93
2023-03-06T17:20:00.773Z,86.16
2023-03-06T17:22:27.748Z,86.45
2023-03-06T17:24:54.550Z,86.23
2023-03-06T17:27:22.657Z,86.18
2023-03-06T17:29:49.159Z,86.27
2023-03-06T17:32:15.657Z,86.27
2023-03-06T17:34:42.344Z,86.42
2023-03-06T17:37:08.881Z,86.65
2023-03-06T17:39:37.355Z,87.02
2023-03-06T17:42:05.492Z,86.37
2023-03-06T17:44:34.220Z,87.03
2023-03-06T17:47:00.730Z,86.71
2023-03-06T17:49:27.289Z,86.61
2023-03-06T17:51:55.082Z,86.90
2023-03-06T17:54:21.533Z,86.92
2023-03-06T17:56:48.273Z,86.84
2023-03-06T17:59:14.893Z,86.62
2023-03-06T18:01:41.482Z,86.08
2023-03-06T18:04:08.043Z,85.58
2023-03-06T18:06:34.577Z,85.83
2023-03-06T18:09:01.776Z,85.74
2023-03-06T18:11:28.392Z,85.76
2023-03-06T18:13:54.892Z,85.58
2023-03-06T18:16:24.726Z,85.74
2023-03-06T18:18:55.956Z,85.67
2023-03-06T18:21:23.541Z,86.08
2023-03-06T18:23:50.643Z,85.89
2023-03-06T18:26:25.773Z,86.20
2023-03-06T18:28:53.361Z,86.22
2023-03-06T18:31:21.592Z,86.73
2023-03-06T18:33:49.145Z,87.49
2023-03-06T18:36:16.859Z,87.59
2023-03-06T18:38:45.461Z,88.07
2023-03-06T18:41:13.449Z,88.13
2023-03-06T18:43:40.068Z,88.60
2023-03-06T18:46:06.857Z,88.80
2023-03-06T18:48:33.454Z,88.74
2023-03-06T18:51:07.741Z,89.16
2023-03-06T18:53:34.905Z,89.31
2023-03-06T18:56:02.315Z,89.15
2023-03-06T18:58:28.959Z,89.27
2023-03-06T19:00:57.706Z,89.35
2023-03-06T19:03:25.438Z,89.58
2023-03-06T19:05:51.913Z,89.51
2023-03-06T19:08:18.512Z,89.55
2023-03-06T19:10:47.324Z,89.53
2023-03-06T19:13:14.717Z,89.89
2023-03-06T19:15:45.763Z,90.00
2023-03-06T19:18:16.042Z,90.41
2023-03-06T19:20:43.446Z,91.14
2023-03-06T19:23:10.821Z,91.21
2023-03-06T19:25:37.361Z,91.17
2023-03-06T19:28:04.031Z,91.67
2023-03-06T19:30:30.534Z,91.54
2023-03-06T19:32:57.234Z,91.73
2023-03-06T19:35:25.013Z,91.36
2023-03-06T19:37:52.022Z,91.74
2023-03-06T19:40:19.453Z,91.79
2023-03-06T19:42:46.693Z,91.95
2023-03-06T19:45:13.307Z,92.17
2023-03-06T19:47:39.956Z,92.57
2023-03-06T19:50:06.906Z,92.61
2023-03-06T19:52:36.452Z,93.05
2023-03-06T19:55:02.945Z,92.89
2023-03-06T19:57:29.469Z,93.21
2023-03-06T19:59:58.201Z,92.91
2023-03-06T20:02:27.143Z,93.19
2023-03-06T20:04:54.863Z,93.17
2023-03-06T20:07:21.818Z,93.29
2023-03-06T20:09:48.385Z,93.41
2023-03-06T20:12:15.523Z,93.46
2023-03-06T20:14:42.845Z,94.17
2023-03-06T20:17:09.253Z,93.66
2023-03-06T20:19:36.490Z,94.03
2023-03-06T20:22:03.220Z,94.18
2023-03-06T20:24:29.623Z,94.15
2023-03-06T20:26:57.647Z,94.47
2023-03-06T20:29:26.644Z,94.24
2023-03-06T20:31:56.032Z,94.95
2023-03-06T20:34:23.386Z,94.90
2023-03-06T20:36:50.315Z,94.24
2023-03-06T20:39:19.188Z,94.72
2023-03-06T20:41:46.694Z,95.03
2023-03-06T20:44:17.059Z,95.17
2023-03-06T20:46:44.238Z,95.17
2023-03-06T20:49:12.314Z,95.13
2023-03-06T20:51:39.551Z,95.46
2023-03-06T20:54:08.677Z,95.45
2023-03-06T20:56:36.675Z,95.51
2023-03-06T20:59:03.309Z,95.38
2023-03-06T21:01:32.115Z,95.53
2023-03-06T21:03:59.399Z,95.62
2023-03-06T21:06:28.010Z,95.79
2023-03-06T21:08:55.691Z,95.80
2023-03-06T21:11:22.132Z,96.08
2023-03-06T21:13:48.636Z,96.00
2023-03-06T21:16:18.649Z,95.91
2023-03-06T21:18:46.133Z,95.84
2023-03-06T21:21:16.269Z,96.34
2023-03-06T21:23:42.804Z,96.21
2023-03-06T21:26:14.061Z,96.44
2023-03-06T21:28:41.097Z,96.44
2023-03-06T21:31:09.983Z,96.63
2023-03-06T21:33:37.132Z,96.62
2023-03-06T21:36:04.331Z,96.52
2023-03-06T21:38:31.175Z,96.91
2023-03-06T21:41:26.666Z,96.68
2023-03-06T21:43:58.358Z,96.93
2023-03-06T21:46:26.484Z,96.41
2023-03-06T21:48:53.622Z,96.78
2023-03-06T21:51:21.178Z,96.49
2023-03-06T21:53:48.358Z,96.85
2023-03-06T21:56:17.078Z,97.00
2023-03-06T21:58:44.215Z,97.02
2023-03-06T22:01:20.046Z,97.27
2023-03-06T22:03:46.831Z,97.21
2023-03-06T22:06:16.590Z,97.48
2023-03-06T22:08:43.979Z,97.13
2023-03-06T22:11:13.628Z,97.44
2023-03-06T22:13:40.615Z,97.12
2023-03-06T22:16:07.792Z,97.18
2023-03-06T22:18:35.453Z,97.28
2023-03-06T22:21:09.435Z,97.17
2023-03-06T22:23:36.229Z,97.29
2023-03-06T22:26:07.794Z,97.15
2023-03-06T22:28:34.932Z,97.56
2023-03-06T22:31:07.707Z,96.98
2023-03-06T22:33:34.519Z,97.12
2023-03-06T22:36:05.288Z,97.35
2023-03-06T22:38:35.817Z,97.21
2023-03-06T22:41:03.789Z,97.36
2023-03-06T22:43:32.257Z,97.43
2023-03-06T22:46:09.832Z,97.26
2023-03-06T22:48:36.603Z,97.19
2023-03-06T22:51:09.471Z,97.27
2023-03-06T22:53:37.052Z,97.40
2023-03-06T22:56:05.552Z,97.23
2023-03-06T22:58:37.241Z,97.36
2023-03-06T23:01:15.610Z,97.45
2023-03-06T23:03:44.583Z,97.05
2023-03-06T23:06:17.143Z,97.18
2023-03-06T23:08:48.106Z,97.39
2023-03-06T23:11:16.512Z,97.52
2023-03-06T23:14:01.722Z,97.44
2023-03-06T23:16:46.688Z,97.46
2023-03-06T23:19:31.846Z,97.47
2023-03-06T23:22:16.903Z,97.36
2023-03-06T23:25:02.018Z,97.52
2023-03-06T23:27:29.314Z,98.28
2023-03-06T23:29:58.826Z,97.68
2023-03-06T23:32:25.414Z,97.62
2023-03-06T23:34:51.886Z,97.62
2023-03-06T23:37:18.333Z,97.84
2023-03-06T23:39:45.389Z,97.55
2023-03-06T23:42:11.862Z,97.66
2023-03-06T23:44:38.343Z,97.66
2023-03-06T23:47:04.923Z,98.10
2023-03-06T23:49:31.372Z,97.65
2023-03-06T23:51:58.120Z,97.83
2023-03-06T23:54:24.612Z,98.19
2023-03-06T23:56:51.037Z,98.01
2023-03-06T23:59:17.447Z,97.97
